createdAt,value
2022-11-19T00:00:03.674Z,-5.31
2022-11-19T00:10:10.308Z,-5.19
2022-11-19T00:20:17.604Z,-5.12
2022-11-19T00:30:46.472Z,-5.04
2022-11-19T00:40:49.060Z,-4.91
2022-11-19T00:50:54.694Z,-4.80
2022-11-19T01:01:00.430Z,-4.72
2022-11-19T01:11:11.463Z,-4.69
2022-11-19T01:21:18.323Z,-4.68
2022-11-19T01:31:26.343Z,-4.63
2022-11-19T01:41:33.915Z,-4.61
2022-11-19T01:51:43.501Z,-4.59
2022-11-19T02:01:49.313Z,-4.56
2022-11-19T02:12:15.888Z,-4.54
2022-11-19T02:22:44.795Z,-4.50
2022-11-19T02:33:08.984Z,-4.42
2022-11-19T02:43:18.385Z,-4.37
2022-11-19T02:53:24.555Z,-4.34
2022-11-19T03:03:49.508Z,-4.34
2022-11-19T03:14:18.539Z,-4.34
2022-11-19T03:24:29.845Z,-4.40
2022-11-19T03:34:37.217Z,-4.41
2022-11-19T03:44:48.836Z,-4.50
2022-11-19T03:54:54.611Z,-4.77
2022-11-19T04:04:58.705Z,-5.15
2022-11-19T04:15:04.570Z,-5.48
2022-11-19T04:25:11.611Z,-5.87
2022-11-19T04:35:21.485Z,-6.20
2022-11-19T04:45:27.060Z,-6.44
2022-11-19T04:55:32.568Z,-6.57
2022-11-19T05:05:38.237Z,-6.55
2022-11-19T05:15:43.777Z,-6.34
2022-11-19T05:25:49.429Z,-6.15
2022-11-19T05:35:53.563Z,-6.03
2022-11-19T05:46:02.004Z,-5.96
2022-11-19T05:56:08.181Z,-5.93
2022-11-19T06:06:13.757Z,-5.91
2022-11-19T06:16:19.521Z,-5.99
2022-11-19T06:26:24.522Z,-6.21
2022-11-19T06:36:35.963Z,-6.40
2022-11-19T06:46:44.845Z,-6.47
2022-11-19T06:56:50.573Z,-6.43
2022-11-19T07:06:54.771Z,-6.26
2022-11-19T07:17:00.444Z,-3.79
2022-11-19T07:27:06.102Z,-0.31
2022-11-19T07:37:11.758Z,2.64
2022-11-19T07:47:17.316Z,4.98
2022-11-19T07:57:29.719Z,6.59
2022-11-19T08:07:37.855Z,8.56
2022-11-19T08:18:00.819Z,10.62
2022-11-19T08:28:06.765Z,12.09
2022-11-19T08:38:12.770Z,12.90
2022-11-19T08:48:18.319Z,13.74
2022-11-19T08:58:24.328Z,14.50
2022-11-19T09:08:29.955Z,14.55
2022-11-19T09:18:39.015Z,14.42
2022-11-19T09:28:45.249Z,12.11
2022-11-19T09:38:51.322Z,7.61
2022-11-19T09:49:02.069Z,4.38
2022-11-19T09:59:27.099Z,2.38
2022-11-19T10:09:43.588Z,0.73
2022-11-19T10:20:04.832Z,-0.27
2022-11-19T10:30:17.461Z,-1.01
2022-11-19T10:40:26.133Z,-1.51
2022-11-19T10:50:31.799Z,-1.90
2022-11-19T11:00:39.178Z,-2.03
2022-11-19T11:10:47.206Z,-2.21
2022-11-19T11:20:53.712Z,-2.35
2022-11-19T11:30:58.738Z,-2.39
2022-11-19T11:51:39.564Z,-2.48
2022-11-19T12:01:55.787Z,-2.48
2022-11-19T12:12:08.977Z,-2.40
2022-11-19T12:22:24.133Z,-2.46
2022-11-19T12:32:51.861Z,-2.40
2022-11-19T12:43:04.868Z,-2.46
2022-11-19T12:53:34.529Z,-2.48
2022-11-19T13:04:00.745Z,-2.48
2022-11-19T13:14:13.699Z,-2.49
2022-11-19T13:24:30.328Z,-2.52
2022-11-19T13:34:42.010Z,-2.61
2022-11-19T13:44:47.816Z,-2.73
2022-11-19T13:54:53.937Z,-2.84
2022-11-19T14:05:38.963Z,-2.92
2022-11-19T14:16:16.230Z,-3.16
2022-11-19T14:26:52.866Z,-3.43
2022-11-19T14:37:01.807Z,-3.64
2022-11-19T14:47:35.226Z,-3.84
2022-11-19T14:57:43.603Z,-4.09
2022-11-19T15:07:56.131Z,-4.28
2022-11-19T15:18:25.440Z,-4.39
2022-11-19T15:28:43.458Z,-4.41
2022-11-19T15:38:55.548Z,-4.42
2022-11-19T15:49:07.695Z,-4.47
2022-11-19T15:59:16.572Z,-4.60
2022-11-19T16:09:25.958Z,-4.70
2022-11-19T16:19:31.758Z,-4.69
2022-11-19T16:29:41.226Z,-4.75
2022-11-19T16:39:52.634Z,-4.90
2022-11-19T16:50:04.876Z,-5.12
2022-11-19T17:00:19.408Z,-5.26
2022-11-19T17:10:32.115Z,-5.40
2022-11-19T17:21:04.994Z,-5.55
2022-11-19T17:31:19.018Z,-5.63
2022-11-19T17:41:44.901Z,-5.56
2022-11-19T17:51:50.822Z,-5.31
2022-11-19T18:01:57.465Z,-5.11
2022-11-19T18:12:03.676Z,-4.97
2022-11-19T18:22:14.293Z,-4.84
2022-11-19T18:32:20.374Z,-4.67
2022-11-19T18:42:27.251Z,-4.54
2022-11-19T18:52:33.374Z,-4.46
2022-11-19T19:02:39.393Z,-4.40
2022-11-19T19:12:43.636Z,-4.35
2022-11-19T19:22:49.396Z,-4.28
2022-11-19T19:32:55.171Z,-4.21
2022-11-19T19:43:03.286Z,-4.17
2022-11-19T19:53:10.543Z,-4.13
2022-11-19T20:03:17.222Z,-4.07
2022-11-19T20:13:28.694Z,-4.05
2022-11-19T20:23:35.056Z,-4.10
2022-11-19T20:33:42.640Z,-4.21
2022-11-19T20:44:06.792Z,-4.28
2022-11-19T20:54:13.090Z,-4.34
2022-11-19T21:04:18.966Z,-4.50
2022-11-19T21:14:23.160Z,-4.58
2022-11-19T21:24:28.817Z,-4.54
2022-11-19T21:34:34.519Z,-4.47
2022-11-19T21:44:40.226Z,-4.48
2022-11-19T21:54:46.059Z,-4.61
2022-11-19T22:04:51.940Z,-4.77
2022-11-19T22:14:56.137Z,-4.79
2022-11-19T22:25:01.795Z,-4.75
2022-11-19T22:35:08.818Z,-4.62
2022-11-19T22:45:14.891Z,-4.50
2022-11-19T22:55:21.121Z,-4.38
2022-11-19T23:05:25.265Z,-4.35
2022-11-19T23:15:31.024Z,-4.34
2022-11-19T23:25:36.696Z,-4.35
2022-11-19T23:35:42.471Z,-4.34
2022-11-19T23:45:48.122Z,-4.33
2022-11-19T23:55:53.916Z,-4.32
